createdAt,value
2019-05-11T00:01:15.973Z,79.27
2019-05-11T00:06:49.594Z,79.21
2019-05-11T00:09:58.751Z,79.28
2019-05-11T00:12:30.089Z,79.66
2019-05-11T00:14:59.486Z,79.11
2019-05-11T00:17:28.955Z,79.09
2019-05-11T00:20:02.273Z,79.31
2019-05-11T00:22:32.509Z,78.84
2019-05-11T00:25:02.326Z,79.18
2019-05-11T00:28:11.119Z,79.80
2019-05-11T00:33:55.644Z,79.66
2019-05-11T00:36:25.140Z,79.46
2019-05-11T00:38:54.554Z,79.48
2019-05-11T00:41:24.518Z,79.45
2019-05-11T00:43:53.869Z,79.50
2019-05-11T00:46:23.276Z,79.60
2019-05-11T00:51:27.796Z,79.37
2019-05-11T00:53:58.021Z,79.26
2019-05-11T00:57:06.753Z,79.12
2019-05-11T01:02:31.923Z,79.29
2019-05-11T01:05:01.441Z,79.58
2019-05-11T01:13:21.414Z,79.25
2019-05-11T01:16:30.944Z,79.44
2019-05-11T01:19:00.563Z,79.31
2019-05-11T01:21:30.125Z,79.54
2019-05-11T01:23:59.645Z,79.95
2019-05-11T01:26:48.705Z,80.07
2019-05-11T01:29:18.216Z,79.91
2019-05-11T01:31:48.069Z,79.92
2019-05-11T01:34:17.638Z,80.54
2019-05-11T01:36:47.081Z,80.45
2019-05-11T01:39:16.700Z,80.45
2019-05-11T01:42:28.095Z,80.20
2019-05-11T01:45:17.557Z,80.51
2019-05-11T01:50:42.677Z,81.57
2019-05-11T01:58:56.868Z,81.71
2019-05-11T02:01:26.845Z,81.35
2019-05-11T02:03:56.397Z,81.16
2019-05-11T02:06:25.891Z,81.01
2019-05-11T02:11:51.846Z,80.84
2019-05-11T02:20:26.287Z,81.99
2019-05-11T02:25:58.918Z,81.57
2019-05-11T02:28:28.319Z,81.66
2019-05-11T02:30:57.827Z,81.59
2019-05-11T02:33:27.956Z,81.55
2019-05-11T02:35:57.454Z,81.38
2019-05-11T02:38:27.376Z,81.62
2019-05-11T02:40:56.958Z,81.48
2019-05-11T02:43:28.031Z,81.23
2019-05-11T02:46:36.930Z,81.06
2019-05-11T02:52:24.406Z,81.08
2019-05-11T02:55:33.756Z,80.65
2019-05-11T03:00:59.385Z,80.58
2019-05-11T03:06:23.383Z,80.34
2019-05-11T03:08:53.188Z,80.22
2019-05-11T03:14:11.766Z,80.19
2019-05-11T03:16:41.780Z,80.34
2019-05-11T03:19:11.192Z,80.30
2019-05-11T03:21:41.314Z,80.12
2019-05-11T03:24:11.739Z,80.71
2019-05-11T03:26:41.761Z,80.32
2019-05-11T03:29:11.282Z,80.79
2019-05-11T03:32:20.485Z,80.38
2019-05-11T03:38:17.726Z,80.25
2019-05-11T03:43:42.353Z,79.95
2019-05-11T03:46:52.318Z,80.17
2019-05-11T03:49:22.726Z,80.22
2019-05-11T03:51:53.611Z,80.34
2019-05-11T03:54:23.240Z,80.08
2019-05-11T03:56:52.849Z,80.44
2019-05-11T03:59:22.398Z,80.07
2019-05-11T04:01:51.880Z,79.68
2019-05-11T04:04:21.368Z,79.63
2019-05-11T04:09:26.370Z,79.09
2019-05-11T04:12:35.927Z,79.38
2019-05-11T04:18:03.084Z,79.35
2019-05-11T04:23:33.470Z,78.64
2019-05-11T04:29:17.354Z,78.06
2019-05-11T04:31:47.224Z,78.01
2019-05-11T04:34:16.596Z,77.96
2019-05-11T04:39:34.823Z,77.65
2019-05-11T04:42:04.593Z,78.11
2019-05-11T04:44:35.185Z,78.61
2019-05-11T04:47:04.890Z,78.46
2019-05-11T04:49:35.453Z,77.98
2019-05-11T04:52:05.925Z,77.75
2019-05-11T04:54:36.023Z,78.18
2019-05-11T04:57:06.162Z,78.16
2019-05-11T04:59:35.602Z,78.56
2019-05-11T05:02:05.533Z,77.93
2019-05-11T05:04:35.595Z,77.80
2019-05-11T05:07:05.545Z,77.50
2019-05-11T05:09:42.987Z,77.84
2019-05-11T05:12:13.642Z,77.39
2019-05-11T05:17:41.808Z,77.22
2019-05-11T05:23:15.641Z,77.08
2019-05-11T05:26:24.275Z,77.45
2019-05-11T05:31:49.478Z,78.05
2019-05-11T05:34:58.253Z,77.75
2019-05-11T05:38:07.721Z,77.70
2019-05-11T05:40:37.519Z,78.68
2019-05-11T05:46:03.287Z,78.07
2019-05-11T05:48:32.695Z,78.15
2019-05-11T05:51:02.461Z,78.28
2019-05-11T05:53:32.339Z,78.46
2019-05-11T05:56:01.988Z,78.13
2019-05-11T06:01:23.650Z,77.96
2019-05-11T06:04:12.294Z,77.57
2019-05-11T06:06:42.325Z,77.39
2019-05-11T06:09:11.786Z,78.01
2019-05-11T06:11:41.143Z,77.81
2019-05-11T06:14:10.571Z,78.02
2019-05-11T06:16:40.006Z,77.61
2019-05-11T06:19:10.218Z,77.68
2019-05-11T06:21:39.903Z,77.47
2019-05-11T06:24:10.279Z,77.65
2019-05-11T06:29:37.132Z,76.63
2019-05-11T06:38:11.048Z,76.02
2019-05-11T06:40:40.455Z,75.69
2019-05-11T06:43:09.836Z,75.84
2019-05-11T06:45:51.034Z,74.85
2019-05-11T06:48:21.055Z,75.11
2019-05-11T06:51:30.106Z,74.85
2019-05-11T06:56:55.816Z,73.70
2019-05-11T06:59:25.346Z,73.81
2019-05-11T07:01:55.188Z,73.53
2019-05-11T07:04:24.970Z,73.78
2019-05-11T07:06:54.395Z,73.47
2019-05-11T07:09:23.920Z,73.34
2019-05-11T07:11:53.535Z,73.27
2019-05-11T07:14:23.138Z,73.21
2019-05-11T07:19:51.648Z,72.38
2019-05-11T07:22:21.102Z,71.69
2019-05-11T07:27:46.695Z,71.79
2019-05-11T07:30:17.664Z,72.12
2019-05-11T07:32:48.158Z,71.68
2019-05-11T07:35:18.778Z,71.35
2019-05-11T07:37:48.560Z,71.23
2019-05-11T07:40:19.881Z,71.00
2019-05-11T07:42:49.418Z,70.79
2019-05-11T07:48:28.395Z,70.85
2019-05-11T07:50:59.622Z,70.74
2019-05-11T07:53:29.456Z,70.74
2019-05-11T07:58:34.433Z,70.28
2019-05-11T08:03:43.310Z,68.59
2019-05-11T08:08:54.754Z,67.46
2019-05-11T08:11:28.090Z,67.33
2019-05-11T08:17:22.251Z,67.81
2019-05-11T08:19:51.738Z,67.38
2019-05-11T08:23:00.903Z,66.78
2019-05-11T08:28:28.617Z,65.92
2019-05-11T08:30:58.047Z,65.71
2019-05-11T08:33:28.405Z,65.93
2019-05-11T08:35:58.444Z,65.64
2019-05-11T08:38:30.858Z,64.59
2019-05-11T08:41:00.361Z,64.90
2019-05-11T08:43:29.761Z,64.02
2019-05-11T08:45:59.435Z,62.84
2019-05-11T08:48:28.868Z,63.53
2019-05-11T08:50:58.411Z,63.28
2019-05-11T08:53:28.503Z,61.90
2019-05-11T08:58:39.671Z,60.92
2019-05-11T09:01:09.133Z,60.48
2019-05-11T09:03:58.476Z,60.14
2019-05-11T09:06:28.510Z,59.95
2019-05-11T09:08:58.430Z,60.78
2019-05-11T09:11:28.524Z,60.77
2019-05-11T09:13:58.320Z,58.95
2019-05-11T09:19:42.711Z,57.55
2019-05-11T09:22:12.184Z,57.75
2019-05-11T09:24:41.689Z,57.75
2019-05-11T09:27:11.097Z,57.67
2019-05-11T09:29:40.703Z,59.26
2019-05-11T09:32:10.107Z,58.69
2019-05-11T09:34:39.654Z,59.39
2019-05-11T09:37:09.418Z,58.38
2019-05-11T09:39:38.867Z,59.21
2019-05-11T09:44:44.088Z,59.81
2019-05-11T09:47:13.669Z,59.96
2019-05-11T09:52:45.281Z,60.89
2019-05-11T09:55:54.136Z,60.55
2019-05-11T09:58:35.881Z,60.69
2019-05-11T10:04:09.006Z,60.05
2019-05-11T10:09:29.605Z,55.86
2019-05-11T10:11:59.225Z,57.17
2019-05-11T10:14:29.000Z,57.33
2019-05-11T10:19:54.968Z,56.02
2019-05-11T10:25:51.107Z,56.80
2019-05-11T10:31:22.261Z,56.13
2019-05-11T10:33:51.877Z,54.92
2019-05-11T10:36:21.493Z,55.34
2019-05-11T10:41:47.963Z,54.78
2019-05-11T10:44:18.927Z,54.21
2019-05-11T10:46:49.986Z,54.57
2019-05-11T10:49:20.313Z,55.66
2019-05-11T10:51:49.881Z,56.57
2019-05-11T10:54:19.756Z,54.95
2019-05-11T10:56:49.212Z,55.97
2019-05-11T10:59:19.173Z,54.97
2019-05-11T11:05:03.135Z,53.96
2019-05-11T11:07:32.581Z,53.32
2019-05-11T11:10:01.975Z,52.69
2019-05-11T11:12:31.508Z,52.96
2019-05-11T11:15:01.345Z,51.22
2019-05-11T11:17:30.852Z,51.38
2019-05-11T11:20:21.506Z,50.24
2019-05-11T11:22:51.316Z,50.35
2019-05-11T11:25:20.953Z,48.78
2019-05-11T11:28:29.704Z,48.20
2019-05-11T11:30:59.393Z,48.13
2019-05-11T11:33:28.990Z,47.69
2019-05-11T11:35:58.877Z,48.22
2019-05-11T11:38:29.174Z,48.78
2019-05-11T11:41:38.090Z,47.43
2019-05-11T11:44:28.525Z,45.69
2019-05-11T11:53:18.605Z,46.32
2019-05-11T11:55:48.186Z,45.70
2019-05-11T11:58:23.753Z,47.46
2019-05-11T12:00:51.858Z,46.00
2019-05-11T12:03:21.230Z,45.90
2019-05-11T12:05:50.664Z,47.60
2019-05-11T12:08:20.035Z,45.25
2019-05-11T12:10:49.989Z,45.43
2019-05-11T12:13:19.577Z,43.77
2019-05-11T12:15:48.969Z,45.72
2019-05-11T12:18:18.599Z,43.96
2019-05-11T12:20:48.178Z,43.84
2019-05-11T12:26:28.187Z,44.94
2019-05-11T12:28:59.088Z,45.58
2019-05-11T12:32:08.255Z,44.99
2019-05-11T12:34:38.987Z,46.33
2019-05-11T12:37:08.571Z,45.00
2019-05-11T12:39:40.001Z,45.83
2019-05-11T12:47:59.698Z,42.46
2019-05-11T12:50:29.931Z,43.62
2019-05-11T13:02:12.004Z,43.77
2019-05-11T13:07:39.178Z,42.74
2019-05-11T13:10:08.732Z,42.11
2019-05-11T13:12:38.733Z,40.83
2019-05-11T13:15:28.171Z,39.86
2019-05-11T13:21:00.254Z,35.90
2019-05-11T13:24:09.093Z,35.24
2019-05-11T13:26:38.676Z,35.51
2019-05-11T13:29:28.631Z,37.01
2019-05-11T13:31:59.695Z,39.03
2019-05-11T13:34:31.539Z,38.73
2019-05-11T13:37:39.995Z,38.56
2019-05-11T13:46:08.776Z,41.40
2019-05-11T13:51:40.932Z,40.97
2019-05-11T13:54:10.868Z,42.06
2019-05-11T13:56:40.315Z,40.65
2019-05-11T14:02:11.264Z,40.88
2019-05-11T14:07:37.954Z,40.84
2019-05-11T14:13:30.911Z,39.07
2019-05-11T14:18:40.114Z,40.86
2019-05-11T14:21:09.508Z,40.24
2019-05-11T14:23:39.012Z,40.29
2019-05-11T14:26:08.843Z,38.41
2019-05-11T14:28:38.989Z,41.37
2019-05-11T14:31:08.521Z,41.06
2019-05-11T14:33:38.694Z,40.86
2019-05-11T14:36:08.764Z,43.16
2019-05-11T14:38:38.323Z,42.60
2019-05-11T14:41:08.547Z,43.18
2019-05-11T14:43:38.480Z,42.81
2019-05-11T14:46:08.659Z,42.07
2019-05-11T14:48:39.184Z,42.12
2019-05-11T14:51:10.112Z,43.03
2019-05-11T14:53:39.601Z,43.97
2019-05-11T14:56:09.339Z,45.39
2019-05-11T15:01:53.741Z,45.92
2019-05-11T15:04:23.089Z,47.05
2019-05-11T15:06:52.575Z,47.14
2019-05-11T15:09:22.521Z,47.54
2019-05-11T15:11:52.657Z,45.70
2019-05-11T15:14:22.355Z,45.42
2019-05-11T15:16:51.753Z,44.31
2019-05-11T15:19:21.207Z,44.35
2019-05-11T15:21:50.839Z,44.04
2019-05-11T15:24:20.428Z,44.15
2019-05-11T15:26:49.839Z,43.71
2019-05-11T15:29:19.337Z,46.62
2019-05-11T15:31:48.729Z,46.49
2019-05-11T15:34:18.688Z,47.63
2019-05-11T15:37:08.399Z,48.67
2019-05-11T15:45:42.236Z,50.83
2019-05-11T15:48:11.678Z,52.73
2019-05-11T15:51:21.213Z,53.52
2019-05-11T15:53:50.666Z,54.61
2019-05-11T15:56:20.241Z,55.29
2019-05-11T15:58:49.719Z,55.31
2019-05-11T16:01:19.181Z,56.34
2019-05-11T16:03:50.141Z,56.02
2019-05-11T16:09:45.357Z,57.56
2019-05-11T16:18:50.748Z,58.22
2019-05-11T16:24:22.670Z,58.46
2019-05-11T16:27:31.336Z,58.04
2019-05-11T16:30:00.751Z,59.71
2019-05-11T16:32:30.260Z,59.25
2019-05-11T16:35:00.451Z,59.90
2019-05-11T16:40:25.837Z,61.51
2019-05-11T16:46:04.844Z,64.91
2019-05-11T16:48:34.572Z,66.75
2019-05-11T16:51:04.175Z,67.49
2019-05-11T16:56:09.304Z,67.40
2019-05-11T16:58:41.146Z,67.99
2019-05-11T17:01:10.099Z,67.51
2019-05-11T17:03:39.724Z,67.84
2019-05-11T17:06:09.173Z,67.25
2019-05-11T17:08:38.657Z,67.16
2019-05-11T17:11:08.429Z,66.86
2019-05-11T17:13:39.514Z,66.60
2019-05-11T17:16:09.071Z,66.55
2019-05-11T17:18:38.422Z,67.22
2019-05-11T17:21:08.040Z,67.01
2019-05-11T17:23:38.399Z,66.56
2019-05-11T17:26:08.895Z,66.93
2019-05-11T17:29:18.555Z,67.35
2019-05-11T17:31:49.318Z,66.91
2019-05-11T17:34:59.099Z,67.05
2019-05-11T17:40:42.868Z,66.98
2019-05-11T17:43:51.655Z,66.97
2019-05-11T17:46:21.403Z,66.87
2019-05-11T17:48:51.182Z,67.75
2019-05-11T17:51:24.698Z,67.58
2019-05-11T17:53:52.781Z,67.89
2019-05-11T17:56:22.526Z,67.74
2019-05-11T17:58:52.064Z,67.85
2019-05-11T18:01:21.670Z,67.92
2019-05-11T18:07:06.076Z,67.91
2019-05-11T18:09:37.927Z,68.27
2019-05-11T18:12:06.901Z,68.99
2019-05-11T18:14:39.358Z,68.87
2019-05-11T18:17:29.459Z,68.81
2019-05-11T18:23:08.362Z,69.34
2019-05-11T18:25:39.469Z,69.23
2019-05-11T18:28:09.259Z,69.54
2019-05-11T18:30:39.061Z,68.89
2019-05-11T18:33:10.104Z,68.42
2019-05-11T18:35:39.755Z,68.29
2019-05-11T18:38:09.278Z,68.31
2019-05-11T18:40:38.630Z,68.32
2019-05-11T18:43:08.691Z,68.48
2019-05-11T18:45:38.549Z,68.42
2019-05-11T18:48:08.278Z,68.55
2019-05-11T18:53:48.226Z,68.66
2019-05-11T18:56:18.177Z,68.44
2019-05-11T18:58:49.004Z,69.03
2019-05-11T19:01:18.800Z,68.74
2019-05-11T19:03:48.231Z,68.83
2019-05-11T19:06:18.511Z,69.20
2019-05-11T19:11:44.106Z,68.96
2019-05-11T19:14:14.202Z,69.06
2019-05-11T19:16:43.620Z,69.17
2019-05-11T19:19:13.340Z,69.47
2019-05-11T19:24:39.031Z,69.16
2019-05-11T19:27:08.635Z,68.96
2019-05-11T19:32:34.415Z,69.30
2019-05-11T19:38:52.013Z,69.69
2019-05-11T19:47:28.122Z,70.11
2019-05-11T19:52:59.992Z,69.92
2019-05-11T19:55:29.538Z,69.76
2019-05-11T19:58:39.430Z,69.92
2019-05-11T20:04:18.957Z,70.12
2019-05-11T20:07:27.905Z,69.73
2019-05-11T20:10:38.309Z,69.82
2019-05-11T20:13:08.133Z,70.01
2019-05-11T20:18:18.216Z,70.70
2019-05-11T20:24:15.114Z,71.30
2019-05-11T20:29:40.719Z,70.71
2019-05-11T20:32:49.631Z,71.36
2019-05-11T20:35:20.071Z,71.17
2019-05-11T20:37:49.859Z,71.40
2019-05-11T20:43:14.869Z,71.92
2019-05-11T20:45:44.326Z,72.40
2019-05-11T20:48:13.969Z,72.05
2019-05-11T20:50:43.464Z,72.58
2019-05-11T20:53:12.903Z,72.59
2019-05-11T20:55:42.474Z,72.61
2019-05-11T21:01:21.586Z,72.41
2019-05-11T21:04:12.138Z,72.57
2019-05-11T21:06:41.631Z,72.24
2019-05-11T21:09:50.563Z,72.89
2019-05-11T21:15:18.036Z,72.36
2019-05-11T21:17:48.213Z,71.98
2019-05-11T21:23:25.350Z,71.94
2019-05-11T21:25:54.890Z,72.66
2019-05-11T21:28:24.439Z,72.37
2019-05-11T21:39:28.756Z,71.97
2019-05-11T21:45:00.758Z,71.99
2019-05-11T21:48:09.696Z,71.88
2019-05-11T21:50:39.194Z,71.86
2019-05-11T21:53:10.601Z,71.44
2019-05-11T21:58:41.826Z,71.12
2019-05-11T22:01:11.757Z,71.29
2019-05-11T22:03:41.243Z,71.22
2019-05-11T22:12:10.890Z,70.86
2019-05-11T22:17:42.575Z,71.00
2019-05-11T22:20:51.278Z,71.18
2019-05-11T22:23:21.283Z,70.94
2019-05-11T22:25:50.835Z,70.82
2019-05-11T22:29:00.579Z,70.62
2019-05-11T22:31:30.957Z,70.69
2019-05-11T22:37:34.760Z,70.44
2019-05-11T22:43:29.160Z,70.22
2019-05-11T22:48:52.960Z,70.31
2019-05-11T22:52:01.819Z,70.69
2019-05-11T22:54:31.750Z,70.59
2019-05-11T22:57:01.093Z,70.37
2019-05-11T22:59:30.551Z,70.73
2019-05-11T23:02:11.751Z,70.11
2019-05-11T23:04:41.263Z,70.24
2019-05-11T23:07:10.781Z,70.40
2019-05-11T23:09:40.596Z,70.49
2019-05-11T23:12:10.264Z,70.50
2019-05-11T23:15:19.132Z,70.52
2019-05-11T23:17:49.698Z,70.41
2019-05-11T23:20:58.499Z,70.88
2019-05-11T23:23:28.416Z,70.89
2019-05-11T23:25:59.317Z,72.01
2019-05-11T23:29:08.303Z,71.94
2019-05-11T23:31:50.558Z,72.71
2019-05-11T23:37:03.146Z,74.62
2019-05-11T23:39:32.543Z,74.50
2019-05-11T23:42:21.340Z,75.22
2019-05-11T23:47:59.986Z,76.44
2019-05-11T23:51:08.864Z,76.23
2019-05-11T23:54:19.147Z,76.70
2019-05-11T23:56:48.653Z,77.11
2019-05-11T23:59:58.066Z,78.48
